Pagrindinis puslapis
METAR-TAF:

METAR-TAF

Oro uostai :

Natalis, Rio Grande do Norte, Brazilija

platuma: 05-55S, ilguma: 035-15W, Aukštis: 52 m

Dabartinis oras

Ataskaita buvo paskelbta 1 valandą ir 14 minutes, ne 02:00 UTC
Vėjas 9 kt iš Pietų/Pietvakarių
Temperatūra 25°C
Drėgmė 89%
Slėgis 1012 hPa
Matomumas 10 km arba daugiau
Mažai debesys ne aukštis 2000 ft
Išsisklaidę debesys ne aukštis 7000 ft

METAR: SBNT 210200Z 20009KT 9999 FEW020 SCT070 25/23 Q1012

Laikas: 00:14 (03:14 UTC)

Prognozė

Ataskaita buvo paskelbta 5 valandos ir 14 minutes, ne 22:00 UTC
Prognozė galioja nuo 21 metu 00 UTC su 21 metu 12 UTC
Vėjas 6 kt iš Pietryčių
Matomumas 10 km arba daugiau
Išsisklaidę debesys ne aukštis 2500 ft
Tapsmas
nuo 21 metu 09 UTC su 21 metu 11 UTC
Vėjas 5 kt iš Pietų/Pietvakarių

TAF: SBNT 202200Z 2100/2112 13006KT 9999 SCT025 TX28/2100Z TN25/2107Z BECMG 2109/2111 21005KT RMK PED

Orai ataskaitas ir orų prognozės (METAR, TAF).

turimą stotys yra geltonos ir raudonos taškus žemėlapyje.

Perkelti pele per norėdami pamatyti stoties vardą.

Tada spustelėkite, norėdami matyti oro stebėjimo ir prognozės.

Norėdami pakeisti žemėlapį: spustelėkite ant žalios mygtukų su juodo kryžiaus žemyn,; žalią mygtuką su brūkšneliu, jei norite nutolinti; arba žalių rodyklių gretimoms žemėlapius.


METAR-TAF: